sensor_id;sensor_type;location;lat;lon;timestamp;temperature;humidity
4826;DHT22;2427;50.934;6.776;2023-06-14T00:01:44;18.60;1.00
4826;DHT22;2427;50.934;6.776;2023-06-14T00:04:13;18.60;1.00
4826;DHT22;2427;50.934;6.776;2023-06-14T00:06:42;18.60;1.00
4826;DHT22;2427;50.934;6.776;2023-06-14T00:09:07;18.50;1.00
4826;DHT22;2427;50.934;6.776;2023-06-14T00:11:34;18.40;1.00
4826;DHT22;2427;50.934;6.776;2023-06-14T00:13:59;18.40;1.00
4826;DHT22;2427;50.934;6.776;2023-06-14T00:16:25;18.30;1.00
4826;DHT22;2427;50.934;6.776;2023-06-14T00:18:51;18.30;1.00
4826;DHT22;2427;50.934;6.776;2023-06-14T00:21:19;18.30;1.00
4826;DHT22;2427;50.934;6.776;2023-06-14T00:23:45;18.20;1.00
4826;DHT22;2427;50.934;6.776;2023-06-14T00:26:11;18.20;1.00
4826;DHT22;2427;50.934;6.776;2023-06-14T00:28:37;18.10;1.00
4826;DHT22;2427;50.934;6.776;2023-06-14T00:31:02;18.10;1.00
4826;DHT22;2427;50.934;6.776;2023-06-14T00:33:28;18.00;1.00
4826;DHT22;2427;50.934;6.776;2023-06-14T00:35:53;18.00;1.00
4826;DHT22;2427;50.934;6.776;2023-06-14T00:38:19;18.00;1.00
4826;DHT22;2427;50.934;6.776;2023-06-14T00:40:45;17.90;1.00
4826;DHT22;2427;50.934;6.776;2023-06-14T00:43:11;17.90;1.00
4826;DHT22;2427;50.934;6.776;2023-06-14T00:45:36;17.80;1.00
4826;DHT22;2427;50.934;6.776;2023-06-14T00:48:03;17.80;1.00
4826;DHT22;2427;50.934;6.776;2023-06-14T00:50:29;17.80;1.00
4826;DHT22;2427;50.934;6.776;2023-06-14T00:52:57;17.70;1.00
4826;DHT22;2427;50.934;6.776;2023-06-14T00:55:23;17.70;1.10
4826;DHT22;2427;50.934;6.776;2023-06-14T00:57:48;17.60;1.60
4826;DHT22;2427;50.934;6.776;2023-06-14T01:10:56;17.50;4.10
4826;DHT22;2427;50.934;6.776;2023-06-14T01:13:32;17.50;14.60
4826;DHT22;2427;50.934;6.776;2023-06-14T01:15:59;17.40;4.60
4826;DHT22;2427;50.934;6.776;2023-06-14T01:18:25;17.40;4.80
4826;DHT22;2427;50.934;6.776;2023-06-14T01:20:53;17.30;6.00
4826;DHT22;2427;50.934;6.776;2023-06-14T01:23:21;17.20;6.80
4826;DHT22;2427;50.934;6.776;2023-06-14T01:25:48;17.20;7.00
4826;DHT22;2427;50.934;6.776;2023-06-14T01:28:21;17.20;7.50
4826;DHT22;2427;50.934;6.776;2023-06-14T01:30:50;17.20;7.70
4826;DHT22;2427;50.934;6.776;2023-06-14T01:33:23;17.10;6.40
4826;DHT22;2427;50.934;6.776;2023-06-14T01:35:51;17.10;6.70
4826;DHT22;2427;50.934;6.776;2023-06-14T01:38:22;17.10;6.60
4826;DHT22;2427;50.934;6.776;2023-06-14T01:40:49;17.00;6.90
4826;DHT22;2427;50.934;6.776;2023-06-14T01:43:16;17.00;7.60
4826;DHT22;2427;50.934;6.776;2023-06-14T01:45:46;17.00;7.70
4826;DHT22;2427;50.934;6.776;2023-06-14T01:48:12;16.90;8.40
4826;DHT22;2427;50.934;6.776;2023-06-14T01:50:38;17.00;8.30
4826;DHT22;2427;50.934;6.776;2023-06-14T01:53:07;17.00;10.30
4826;DHT22;2427;50.934;6.776;2023-06-14T01:55:34;16.90;10.60
4826;DHT22;2427;50.934;6.776;2023-06-14T01:58:03;16.90;12.10
4826;DHT22;2427;50.934;6.776;2023-06-14T02:00:28;16.80;12.40
4826;DHT22;2427;50.934;6.776;2023-06-14T02:02:54;16.80;14.40
4826;DHT22;2427;50.934;6.776;2023-06-14T02:05:19;16.80;14.70
4826;DHT22;2427;50.934;6.776;2023-06-14T02:07:46;16.70;15.70
4826;DHT22;2427;50.934;6.776;2023-06-14T02:10:11;16.70;17.20
4826;DHT22;2427;50.934;6.776;2023-06-14T02:12:37;16.70;17.90
4826;DHT22;2427;50.934;6.776;2023-06-14T02:15:03;16.60;17.20
4826;DHT22;2427;50.934;6.776;2023-06-14T02:17:29;16.60;16.60
4826;DHT22;2427;50.934;6.776;2023-06-14T02:19:54;16.60;19.10
4826;DHT22;2427;50.934;6.776;2023-06-14T02:22:22;16.50;21.20
4826;DHT22;2427;50.934;6.776;2023-06-14T02:24:48;16.50;20.40
4826;DHT22;2427;50.934;6.776;2023-06-14T02:27:14;16.50;20.30
4826;DHT22;2427;50.934;6.776;2023-06-14T02:29:39;16.50;20.00
4826;DHT22;2427;50.934;6.776;2023-06-14T02:32:05;16.40;29.30
4826;DHT22;2427;50.934;6.776;2023-06-14T02:34:33;16.40;20.90
4826;DHT22;2427;50.934;6.776;2023-06-14T02:36:59;16.40;21.50
4826;DHT22;2427;50.934;6.776;2023-06-14T02:39:25;16.30;21.80
4826;DHT22;2427;50.934;6.776;2023-06-14T02:41:50;16.30;24.20
4826;DHT22;2427;50.934;6.776;2023-06-14T02:44:18;16.30;25.10
4826;DHT22;2427;50.934;6.776;2023-06-14T02:46:44;16.30;27.10
4826;DHT22;2427;50.934;6.776;2023-06-14T02:49:13;16.10;26.40
4826;DHT22;2427;50.934;6.776;2023-06-14T02:51:38;16.20;27.10
4826;DHT22;2427;50.934;6.776;2023-06-14T02:54:04;16.10;27.60
4826;DHT22;2427;50.934;6.776;2023-06-14T02:56:29;16.10;26.50
4826;DHT22;2427;50.934;6.776;2023-06-14T02:58:55;16.00;26.40
4826;DHT22;2427;50.934;6.776;2023-06-14T03:01:21;16.00;27.10
4826;DHT22;2427;50.934;6.776;2023-06-14T03:03:47;16.00;27.50
4826;DHT22;2427;50.934;6.776;2023-06-14T03:06:12;16.00;29.30
4826;DHT22;2427;50.934;6.776;2023-06-14T03:08:40;16.00;32.00
4826;DHT22;2427;50.934;6.776;2023-06-14T03:11:07;16.00;31.90
4826;DHT22;2427;50.934;6.776;2023-06-14T03:13:36;16.00;34.30
4826;DHT22;2427;50.934;6.776;2023-06-14T03:16:04;15.90;49.60
4826;DHT22;2427;50.934;6.776;2023-06-14T03:18:30;15.90;36.00
4826;DHT22;2427;50.934;6.776;2023-06-14T03:20:56;15.90;36.90
4826;DHT22;2427;50.934;6.776;2023-06-14T03:23:24;15.80;37.60
4826;DHT22;2427;50.934;6.776;2023-06-14T03:25:50;15.80;36.70
4826;DHT22;2427;50.934;6.776;2023-06-14T03:28:17;15.80;35.80
4826;DHT22;2427;50.934;6.776;2023-06-14T03:30:42;15.80;36.20
4826;DHT22;2427;50.934;6.776;2023-06-14T03:33:08;15.80;37.10
4826;DHT22;2427;50.934;6.776;2023-06-14T03:35:34;15.80;39.40
4826;DHT22;2427;50.934;6.776;2023-06-14T03:38:00;15.80;42.80
4826;DHT22;2427;50.934;6.776;2023-06-14T03:40:26;15.80;45.50
4826;DHT22;2427;50.934;6.776;2023-06-14T03:42:55;15.70;47.80
4826;DHT22;2427;50.934;6.776;2023-06-14T03:45:21;15.70;47.20
4826;DHT22;2427;50.934;6.776;2023-06-14T03:47:47;15.70;45.50
4826;DHT22;2427;50.934;6.776;2023-06-14T03:50:13;15.70;43.10
4826;DHT22;2427;50.934;6.776;2023-06-14T03:52:39;15.80;45.00
4826;DHT22;2427;50.934;6.776;2023-06-14T03:55:06;15.70;48.00
4826;DHT22;2427;50.934;6.776;2023-06-14T03:57:31;15.70;53.70
4826;DHT22;2427;50.934;6.776;2023-06-14T03:59:57;15.70;55.60
4826;DHT22;2427;50.934;6.776;2023-06-14T04:02:22;15.70;59.90
4826;DHT22;2427;50.934;6.776;2023-06-14T04:04:48;15.80;62.40
4826;DHT22;2427;50.934;6.776;2023-06-14T04:07:15;15.80;61.60
4826;DHT22;2427;50.934;6.776;2023-06-14T04:09:41;15.80;60.00
4826;DHT22;2427;50.934;6.776;2023-06-14T04:12:07;15.80;65.90
4826;DHT22;2427;50.934;6.776;2023-06-14T04:14:37;15.90;72.40
4826;DHT22;2427;50.934;6.776;2023-06-14T04:17:02;15.90;69.10
4826;DHT22;2427;50.934;6.776;2023-06-14T04:19:28;16.00;65.20
4826;DHT22;2427;50.934;6.776;2023-06-14T04:21:53;16.10;62.10
4826;DHT22;2427;50.934;6.776;2023-06-14T04:24:19;16.10;61.40
4826;DHT22;2427;50.934;6.776;2023-06-14T04:26:45;16.20;64.80
4826;DHT22;2427;50.934;6.776;2023-06-14T04:29:13;16.30;69.20
4826;DHT22;2427;50.934;6.776;2023-06-14T04:31:45;16.30;72.90
4826;DHT22;2427;50.934;6.776;2023-06-14T04:34:12;16.40;76.70
4826;DHT22;2427;50.934;6.776;2023-06-14T04:36:47;16.50;78.20
4826;DHT22;2427;50.934;6.776;2023-06-14T04:39:21;16.50;75.10
4826;DHT22;2427;50.934;6.776;2023-06-14T04:41:47;16.60;65.40
4826;DHT22;2427;50.934;6.776;2023-06-14T04:44:13;16.60;67.60
4826;DHT22;2427;50.934;6.776;2023-06-14T04:46:39;16.70;66.10
4826;DHT22;2427;50.934;6.776;2023-06-14T04:49:12;16.80;68.70
4826;DHT22;2427;50.934;6.776;2023-06-14T04:51:39;16.90;71.40
4826;DHT22;2427;50.934;6.776;2023-06-14T04:54:05;17.00;76.50
4826;DHT22;2427;50.934;6.776;2023-06-14T04:56:35;17.10;77.30
4826;DHT22;2427;50.934;6.776;2023-06-14T04:59:02;17.30;76.90
4826;DHT22;2427;50.934;6.776;2023-06-14T05:01:30;17.40;69.80
4826;DHT22;2427;50.934;6.776;2023-06-14T05:03:57;17.40;63.20
4826;DHT22;2427;50.934;6.776;2023-06-14T05:06:22;17.50;59.90
4826;DHT22;2427;50.934;6.776;2023-06-14T05:08:48;17.70;56.10
4826;DHT22;2427;50.934;6.776;2023-06-14T05:11:14;17.70;52.90
4826;DHT22;2427;50.934;6.776;2023-06-14T05:13:39;17.80;51.50
4826;DHT22;2427;50.934;6.776;2023-06-14T05:16:06;17.90;63.10
4826;DHT22;2427;50.934;6.776;2023-06-14T05:18:32;18.00;51.50
4826;DHT22;2427;50.934;6.776;2023-06-14T05:20:59;18.10;52.00
4826;DHT22;2427;50.934;6.776;2023-06-14T05:23:25;18.20;49.70
4826;DHT22;2427;50.934;6.776;2023-06-14T05:25:50;18.30;48.70
4826;DHT22;2427;50.934;6.776;2023-06-14T05:28:16;18.30;49.10
4826;DHT22;2427;50.934;6.776;2023-06-14T05:30:42;18.40;48.70
4826;DHT22;2427;50.934;6.776;2023-06-14T05:33:07;18.50;48.90
4826;DHT22;2427;50.934;6.776;2023-06-14T05:35:33;18.60;47.90
4826;DHT22;2427;50.934;6.776;2023-06-14T05:37:59;18.70;48.60
4826;DHT22;2427;50.934;6.776;2023-06-14T05:40:24;18.80;48.80
4826;DHT22;2427;50.934;6.776;2023-06-14T05:42:50;18.90;48.90
4826;DHT22;2427;50.934;6.776;2023-06-14T05:45:16;18.90;47.10
4826;DHT22;2427;50.934;6.776;2023-06-14T05:47:48;19.10;47.10
4826;DHT22;2427;50.934;6.776;2023-06-14T05:50:13;19.20;46.60
4826;DHT22;2427;50.934;6.776;2023-06-14T05:52:39;19.20;46.60
4826;DHT22;2427;50.934;6.776;2023-06-14T05:55:05;19.30;46.10
4826;DHT22;2427;50.934;6.776;2023-06-14T05:57:31;19.40;44.80
4826;DHT22;2427;50.934;6.776;2023-06-14T05:59:57;19.50;42.20
4826;DHT22;2427;50.934;6.776;2023-06-14T06:02:22;19.60;40.70
4826;DHT22;2427;50.934;6.776;2023-06-14T06:04:48;19.70;37.90
4826;DHT22;2427;50.934;6.776;2023-06-14T06:07:13;19.80;34.70
4826;DHT22;2427;50.934;6.776;2023-06-14T06:09:39;19.90;32.00
4826;DHT22;2427;50.934;6.776;2023-06-14T06:12:06;19.90;30.60
4826;DHT22;2427;50.934;6.776;2023-06-14T06:14:32;20.00;28.70
4826;DHT22;2427;50.934;6.776;2023-06-14T06:16:58;20.00;28.00
4826;DHT22;2427;50.934;6.776;2023-06-14T06:19:24;20.20;26.50
4826;DHT22;2427;50.934;6.776;2023-06-14T06:21:49;20.20;26.10
4826;DHT22;2427;50.934;6.776;2023-06-14T06:24:15;20.30;25.40
4826;DHT22;2427;50.934;6.776;2023-06-14T06:26:41;20.40;23.90
4826;DHT22;2427;50.934;6.776;2023-06-14T06:29:07;20.50;22.70
4826;DHT22;2427;50.934;6.776;2023-06-14T06:31:33;20.50;21.70
4826;DHT22;2427;50.934;6.776;2023-06-14T06:33:58;20.50;20.60
4826;DHT22;2427;50.934;6.776;2023-06-14T06:36:24;20.60;19.50
4826;DHT22;2427;50.934;6.776;2023-06-14T06:38:50;20.70;18.00
4826;DHT22;2427;50.934;6.776;2023-06-14T06:41:16;20.70;17.30
4826;DHT22;2427;50.934;6.776;2023-06-14T06:43:41;20.70;17.10
4826;DHT22;2427;50.934;6.776;2023-06-14T06:46:07;20.80;16.30
4826;DHT22;2427;50.934;6.776;2023-06-14T06:48:33;20.90;15.90
4826;DHT22;2427;50.934;6.776;2023-06-14T06:50:58;21.00;14.80
4826;DHT22;2427;50.934;6.776;2023-06-14T06:53:24;21.00;14.70
4826;DHT22;2427;50.934;6.776;2023-06-14T06:55:50;21.00;13.20
4826;DHT22;2427;50.934;6.776;2023-06-14T06:58:15;21.10;12.50
4826;DHT22;2427;50.934;6.776;2023-06-14T07:00:41;21.10;11.60
4826;DHT22;2427;50.934;6.776;2023-06-14T07:03:07;21.20;11.60
4826;DHT22;2427;50.934;6.776;2023-06-14T07:05:32;21.30;10.20
4826;DHT22;2427;50.934;6.776;2023-06-14T07:07:58;21.30;9.70
4826;DHT22;2427;50.934;6.776;2023-06-14T07:10:24;21.30;8.80
4826;DHT22;2427;50.934;6.776;2023-06-14T07:12:50;21.40;8.70
4826;DHT22;2427;50.934;6.776;2023-06-14T07:15:16;21.50;8.20
4826;DHT22;2427;50.934;6.776;2023-06-14T07:17:42;21.50;7.70
4826;DHT22;2427;50.934;6.776;2023-06-14T07:20:08;21.60;7.40
4826;DHT22;2427;50.934;6.776;2023-06-14T07:22:40;21.70;6.70
4826;DHT22;2427;50.934;6.776;2023-06-14T07:25:10;21.70;5.80
4826;DHT22;2427;50.934;6.776;2023-06-14T07:27:40;21.70;4.90
4826;DHT22;2427;50.934;6.776;2023-06-14T07:30:06;21.70;4.40
4826;DHT22;2427;50.934;6.776;2023-06-14T07:32:32;21.80;4.50
4826;DHT22;2427;50.934;6.776;2023-06-14T07:34:58;21.80;4.40
4826;DHT22;2427;50.934;6.776;2023-06-14T07:37:23;21.90;2.80
4826;DHT22;2427;50.934;6.776;2023-06-14T07:39:49;22.00;2.70
4826;DHT22;2427;50.934;6.776;2023-06-14T07:42:14;22.00;2.10
4826;DHT22;2427;50.934;6.776;2023-06-14T07:44:40;22.10;2.20
4826;DHT22;2427;50.934;6.776;2023-06-14T07:47:06;22.20;1.60
4826;DHT22;2427;50.934;6.776;2023-06-14T07:49:31;22.20;1.10
4826;DHT22;2427;50.934;6.776;2023-06-14T07:51:57;22.30;1.00
4826;DHT22;2427;50.934;6.776;2023-06-14T07:54:24;22.30;1.00
4826;DHT22;2427;50.934;6.776;2023-06-14T07:56:51;22.40;1.00
4826;DHT22;2427;50.934;6.776;2023-06-14T07:59:17;22.50;1.00
4826;DHT22;2427;50.934;6.776;2023-06-14T08:01:43;22.50;1.00
4826;DHT22;2427;50.934;6.776;2023-06-14T08:04:12;22.50;1.00
4826;DHT22;2427;50.934;6.776;2023-06-14T08:06:38;22.60;1.00
4826;DHT22;2427;50.934;6.776;2023-06-14T08:09:04;22.60;1.00
4826;DHT22;2427;50.934;6.776;2023-06-14T08:11:30;22.70;1.00
4826;DHT22;2427;50.934;6.776;2023-06-14T08:13:56;22.70;1.00
4826;DHT22;2427;50.934;6.776;2023-06-14T08:16:22;22.80;1.00
4826;DHT22;2427;50.934;6.776;2023-06-14T08:18:48;22.90;1.00
4826;DHT22;2427;50.934;6.776;2023-06-14T08:21:13;22.90;1.00
4826;DHT22;2427;50.934;6.776;2023-06-14T08:23:40;23.00;1.00
4826;DHT22;2427;50.934;6.776;2023-06-14T08:26:07;23.00;1.00
4826;DHT22;2427;50.934;6.776;2023-06-14T08:28:32;23.10;1.00
4826;DHT22;2427;50.934;6.776;2023-06-14T08:30:58;23.20;1.00
4826;DHT22;2427;50.934;6.776;2023-06-14T08:33:23;23.30;1.00
4826;DHT22;2427;50.934;6.776;2023-06-14T08:35:49;23.40;1.00
4826;DHT22;2427;50.934;6.776;2023-06-14T08:38:14;23.50;1.00
4826;DHT22;2427;50.934;6.776;2023-06-14T08:40:41;23.50;1.00
4826;DHT22;2427;50.934;6.776;2023-06-14T08:43:07;23.50;1.00
4826;DHT22;2427;50.934;6.776;2023-06-14T08:45:33;23.50;1.00
4826;DHT22;2427;50.934;6.776;2023-06-14T08:47:59;23.50;1.00
4826;DHT22;2427;50.934;6.776;2023-06-14T08:50:26;23.60;1.00
4826;DHT22;2427;50.934;6.776;2023-06-14T08:52:54;23.70;1.00
4826;DHT22;2427;50.934;6.776;2023-06-14T08:55:22;23.80;1.00
4826;DHT22;2427;50.934;6.776;2023-06-14T08:57:51;23.90;1.00
4826;DHT22;2427;50.934;6.776;2023-06-14T09:00:19;23.90;1.00
4826;DHT22;2427;50.934;6.776;2023-06-14T09:02:46;24.10;1.00
4826;DHT22;2427;50.934;6.776;2023-06-14T09:05:12;24.10;1.00
4826;DHT22;2427;50.934;6.776;2023-06-14T09:07:44;24.20;1.00
4826;DHT22;2427;50.934;6.776;2023-06-14T09:10:12;24.20;1.00
4826;DHT22;2427;50.934;6.776;2023-06-14T09:12:38;24.20;1.00
4826;DHT22;2427;50.934;6.776;2023-06-14T09:15:08;24.20;1.00
4826;DHT22;2427;50.934;6.776;2023-06-14T09:17:38;24.30;1.00
4826;DHT22;2427;50.934;6.776;2023-06-14T09:20:05;24.40;1.00
4826;DHT22;2427;50.934;6.776;2023-06-14T09:22:32;24.40;1.00
4826;DHT22;2427;50.934;6.776;2023-06-14T09:24:58;24.60;1.00
4826;DHT22;2427;50.934;6.776;2023-06-14T09:27:26;24.60;1.00
4826;DHT22;2427;50.934;6.776;2023-06-14T09:29:52;24.70;1.00
4826;DHT22;2427;50.934;6.776;2023-06-14T09:32:18;24.70;1.00
4826;DHT22;2427;50.934;6.776;2023-06-14T09:34:45;24.70;1.00
4826;DHT22;2427;50.934;6.776;2023-06-14T09:37:11;24.70;1.00
4826;DHT22;2427;50.934;6.776;2023-06-14T09:39:49;24.80;1.00
4826;DHT22;2427;50.934;6.776;2023-06-14T09:42:19;24.90;1.00
4826;DHT22;2427;50.934;6.776;2023-06-14T09:44:48;24.90;1.00
4826;DHT22;2427;50.934;6.776;2023-06-14T09:47:15;25.00;1.00
4826;DHT22;2427;50.934;6.776;2023-06-14T09:49:41;25.10;1.00
4826;DHT22;2427;50.934;6.776;2023-06-14T09:52:10;25.10;1.00
4826;DHT22;2427;50.934;6.776;2023-06-14T09:54:41;25.10;1.00
4826;DHT22;2427;50.934;6.776;2023-06-14T09:57:12;25.10;1.00
4826;DHT22;2427;50.934;6.776;2023-06-14T09:59:43;25.10;1.00
4826;DHT22;2427;50.934;6.776;2023-06-14T10:02:36;25.10;1.00
4826;DHT22;2427;50.934;6.776;2023-06-14T10:07:32;25.30;1.00
4826;DHT22;2427;50.934;6.776;2023-06-14T10:10:01;25.30;1.00
4826;DHT22;2427;50.934;6.776;2023-06-14T10:12:26;25.30;1.00
4826;DHT22;2427;50.934;6.776;2023-06-14T10:14:53;25.30;1.00
4826;DHT22;2427;50.934;6.776;2023-06-14T10:17:32;25.20;1.00
4826;DHT22;2427;50.934;6.776;2023-06-14T10:22:50;25.30;1.00
4826;DHT22;2427;50.934;6.776;2023-06-14T10:25:30;25.50;1.00
4826;DHT22;2427;50.934;6.776;2023-06-14T10:28:03;25.50;1.00
4826;DHT22;2427;50.934;6.776;2023-06-14T10:30:39;25.60;1.00
4826;DHT22;2427;50.934;6.776;2023-06-14T10:33:06;25.60;1.00
4826;DHT22;2427;50.934;6.776;2023-06-14T10:35:33;25.60;1.00
4826;DHT22;2427;50.934;6.776;2023-06-14T10:38:14;25.70;1.00
4826;DHT22;2427;50.934;6.776;2023-06-14T10:40:40;25.70;1.00
4826;DHT22;2427;50.934;6.776;2023-06-14T10:43:22;25.70;1.00
4826;DHT22;2427;50.934;6.776;2023-06-14T10:46:14;25.80;1.00
4826;DHT22;2427;50.934;6.776;2023-06-14T10:48:41;25.90;1.00
4826;DHT22;2427;50.934;6.776;2023-06-14T10:51:15;25.90;1.00
4826;DHT22;2427;50.934;6.776;2023-06-14T10:53:45;25.90;1.00
4826;DHT22;2427;50.934;6.776;2023-06-14T10:56:26;25.90;1.00
4826;DHT22;2427;50.934;6.776;2023-06-14T10:58:52;25.90;1.00
4826;DHT22;2427;50.934;6.776;2023-06-14T11:01:29;25.90;1.00
4826;DHT22;2427;50.934;6.776;2023-06-14T11:04:00;25.90;1.00
4826;DHT22;2427;50.934;6.776;2023-06-14T11:06:47;26.00;1.00
4826;DHT22;2427;50.934;6.776;2023-06-14T11:09:38;26.00;1.00
4826;DHT22;2427;50.934;6.776;2023-06-14T11:12:10;26.10;1.00
4826;DHT22;2427;50.934;6.776;2023-06-14T11:14:36;26.20;1.00
4826;DHT22;2427;50.934;6.776;2023-06-14T11:17:02;26.10;1.00
4826;DHT22;2427;50.934;6.776;2023-06-14T11:19:27;26.10;1.00
4826;DHT22;2427;50.934;6.776;2023-06-14T11:21:54;26.10;1.00
4826;DHT22;2427;50.934;6.776;2023-06-14T11:24:20;26.30;1.00
4826;DHT22;2427;50.934;6.776;2023-06-14T11:26:47;26.30;1.00
4826;DHT22;2427;50.934;6.776;2023-06-14T11:29:14;26.40;1.00
4826;DHT22;2427;50.934;6.776;2023-06-14T11:31:43;26.50;1.00
4826;DHT22;2427;50.934;6.776;2023-06-14T11:34:11;26.40;1.00
4826;DHT22;2427;50.934;6.776;2023-06-14T11:36:38;26.40;1.00
4826;DHT22;2427;50.934;6.776;2023-06-14T11:39:05;26.60;1.00
4826;DHT22;2427;50.934;6.776;2023-06-14T11:41:43;26.80;1.00
4826;DHT22;2427;50.934;6.776;2023-06-14T11:44:09;26.90;1.00
4826;DHT22;2427;50.934;6.776;2023-06-14T11:46:35;27.00;1.00
4826;DHT22;2427;50.934;6.776;2023-06-14T11:49:02;27.10;1.00
4826;DHT22;2427;50.934;6.776;2023-06-14T11:51:35;27.20;1.00
4826;DHT22;2427;50.934;6.776;2023-06-14T11:54:02;27.30;1.00
4826;DHT22;2427;50.934;6.776;2023-06-14T11:56:29;27.20;1.00
4826;DHT22;2427;50.934;6.776;2023-06-14T11:58:54;27.30;1.00
4826;DHT22;2427;50.934;6.776;2023-06-14T12:01:23;27.40;1.00
4826;DHT22;2427;50.934;6.776;2023-06-14T12:03:50;27.70;1.00
4826;DHT22;2427;50.934;6.776;2023-06-14T12:06:16;27.70;1.00
4826;DHT22;2427;50.934;6.776;2023-06-14T12:08:50;27.90;1.00
4826;DHT22;2427;50.934;6.776;2023-06-14T12:11:16;28.20;1.00
4826;DHT22;2427;50.934;6.776;2023-06-14T12:13:42;28.50;1.00
4826;DHT22;2427;50.934;6.776;2023-06-14T12:16:09;28.80;1.00
4826;DHT22;2427;50.934;6.776;2023-06-14T12:18:36;29.00;1.00
4826;DHT22;2427;50.934;6.776;2023-06-14T12:21:04;28.90;1.00
4826;DHT22;2427;50.934;6.776;2023-06-14T12:23:48;29.00;1.00
4826;DHT22;2427;50.934;6.776;2023-06-14T12:26:16;28.80;1.00
4826;DHT22;2427;50.934;6.776;2023-06-14T12:28:44;28.60;1.00
4826;DHT22;2427;50.934;6.776;2023-06-14T12:31:11;28.30;1.00
4826;DHT22;2427;50.934;6.776;2023-06-14T12:33:38;27.90;1.00
4826;DHT22;2427;50.934;6.776;2023-06-14T12:36:04;28.10;1.00
4826;DHT22;2427;50.934;6.776;2023-06-14T12:38:32;28.70;1.00
4826;DHT22;2427;50.934;6.776;2023-06-14T12:40:57;29.30;1.00
4826;DHT22;2427;50.934;6.776;2023-06-14T12:43:23;29.90;1.00
4826;DHT22;2427;50.934;6.776;2023-06-14T12:45:49;29.90;1.00
4826;DHT22;2427;50.934;6.776;2023-06-14T12:48:15;29.50;1.00
4826;DHT22;2427;50.934;6.776;2023-06-14T12:50:41;29.80;1.00
4826;DHT22;2427;50.934;6.776;2023-06-14T12:53:07;30.30;1.00
4826;DHT22;2427;50.934;6.776;2023-06-14T12:55:33;30.80;1.00
4826;DHT22;2427;50.934;6.776;2023-06-14T12:57:59;31.30;1.00
4826;DHT22;2427;50.934;6.776;2023-06-14T13:00:24;31.80;1.00
4826;DHT22;2427;50.934;6.776;2023-06-14T13:02:55;32.10;1.00
4826;DHT22;2427;50.934;6.776;2023-06-14T13:05:21;31.60;1.00
4826;DHT22;2427;50.934;6.776;2023-06-14T13:07:46;31.10;1.00
4826;DHT22;2427;50.934;6.776;2023-06-14T13:10:12;30.60;1.00
4826;DHT22;2427;50.934;6.776;2023-06-14T13:12:38;30.00;1.00
4826;DHT22;2427;50.934;6.776;2023-06-14T13:15:03;29.60;1.00
4826;DHT22;2427;50.934;6.776;2023-06-14T13:17:29;29.30;1.00
4826;DHT22;2427;50.934;6.776;2023-06-14T13:19:55;29.50;1.00
4826;DHT22;2427;50.934;6.776;2023-06-14T13:22:20;30.10;1.00
4826;DHT22;2427;50.934;6.776;2023-06-14T13:24:46;30.50;1.00
4826;DHT22;2427;50.934;6.776;2023-06-14T13:27:12;30.80;1.00
4826;DHT22;2427;50.934;6.776;2023-06-14T13:29:39;31.10;1.00
4826;DHT22;2427;50.934;6.776;2023-06-14T13:32:05;31.10;1.00
4826;DHT22;2427;50.934;6.776;2023-06-14T13:34:31;30.90;1.00
4826;DHT22;2427;50.934;6.776;2023-06-14T13:36:57;30.50;1.00
4826;DHT22;2427;50.934;6.776;2023-06-14T13:39:24;30.20;1.00
4826;DHT22;2427;50.934;6.776;2023-06-14T13:41:50;29.90;1.00
4826;DHT22;2427;50.934;6.776;2023-06-14T13:44:16;29.80;1.00
4826;DHT22;2427;50.934;6.776;2023-06-14T13:46:44;29.70;1.00
4826;DHT22;2427;50.934;6.776;2023-06-14T13:49:10;29.80;1.00
4826;DHT22;2427;50.934;6.776;2023-06-14T13:51:36;29.70;1.00
4826;DHT22;2427;50.934;6.776;2023-06-14T13:54:01;29.80;1.00
4826;DHT22;2427;50.934;6.776;2023-06-14T13:56:27;30.40;1.00
4826;DHT22;2427;50.934;6.776;2023-06-14T13:58:53;30.40;1.00
4826;DHT22;2427;50.934;6.776;2023-06-14T14:01:18;31.00;1.00
4826;DHT22;2427;50.934;6.776;2023-06-14T14:03:46;31.10;1.00
4826;DHT22;2427;50.934;6.776;2023-06-14T14:06:12;31.50;1.00
4826;DHT22;2427;50.934;6.776;2023-06-14T14:08:38;32.00;1.00
4826;DHT22;2427;50.934;6.776;2023-06-14T14:11:05;32.30;1.00
4826;DHT22;2427;50.934;6.776;2023-06-14T14:13:31;32.00;1.00
4826;DHT22;2427;50.934;6.776;2023-06-14T14:15:57;31.50;1.00
4826;DHT22;2427;50.934;6.776;2023-06-14T14:18:22;31.30;1.00
4826;DHT22;2427;50.934;6.776;2023-06-14T14:20:48;31.90;1.00
4826;DHT22;2427;50.934;6.776;2023-06-14T14:23:14;33.10;1.00
4826;DHT22;2427;50.934;6.776;2023-06-14T14:25:40;34.80;1.00
4826;DHT22;2427;50.934;6.776;2023-06-14T14:28:05;36.10;1.00
4826;DHT22;2427;50.934;6.776;2023-06-14T14:30:31;37.30;1.00
4826;DHT22;2427;50.934;6.776;2023-06-14T14:32:56;37.70;1.00
4826;DHT22;2427;50.934;6.776;2023-06-14T14:35:22;38.10;1.00
4826;DHT22;2427;50.934;6.776;2023-06-14T14:37:49;36.90;1.00
4826;DHT22;2427;50.934;6.776;2023-06-14T14:40:15;35.60;1.00
4826;DHT22;2427;50.934;6.776;2023-06-14T14:42:41;34.70;1.00
4826;DHT22;2427;50.934;6.776;2023-06-14T14:45:07;35.50;1.00
4826;DHT22;2427;50.934;6.776;2023-06-14T14:47:32;36.90;1.00
4826;DHT22;2427;50.934;6.776;2023-06-14T14:49:58;38.20;1.00
4826;DHT22;2427;50.934;6.776;2023-06-14T14:52:23;39.10;1.00
4826;DHT22;2427;50.934;6.776;2023-06-14T14:54:50;39.50;1.00
4826;DHT22;2427;50.934;6.776;2023-06-14T14:57:16;39.90;1.00
4826;DHT22;2427;50.934;6.776;2023-06-14T14:59:41;40.70;1.00
4826;DHT22;2427;50.934;6.776;2023-06-14T15:02:07;40.40;1.00
4826;DHT22;2427;50.934;6.776;2023-06-14T15:04:32;39.40;1.00
4826;DHT22;2427;50.934;6.776;2023-06-14T15:06:58;37.90;1.00
4826;DHT22;2427;50.934;6.776;2023-06-14T15:09:23;36.80;1.00
4826;DHT22;2427;50.934;6.776;2023-06-14T15:11:49;37.10;1.00
4826;DHT22;2427;50.934;6.776;2023-06-14T15:14:14;38.10;1.00
4826;DHT22;2427;50.934;6.776;2023-06-14T15:16:41;38.50;1.00
4826;DHT22;2427;50.934;6.776;2023-06-14T15:19:07;37.70;1.00
4826;DHT22;2427;50.934;6.776;2023-06-14T15:21:32;36.30;1.00
4826;DHT22;2427;50.934;6.776;2023-06-14T15:23:58;35.80;1.00
4826;DHT22;2427;50.934;6.776;2023-06-14T15:26:23;36.30;1.00
4826;DHT22;2427;50.934;6.776;2023-06-14T15:28:50;37.70;1.00
4826;DHT22;2427;50.934;6.776;2023-06-14T15:31:15;38.70;1.00
4826;DHT22;2427;50.934;6.776;2023-06-14T15:33:41;39.50;1.00
4826;DHT22;2427;50.934;6.776;2023-06-14T15:36:07;40.10;1.00
4826;DHT22;2427;50.934;6.776;2023-06-14T15:38:35;40.90;1.00
4826;DHT22;2427;50.934;6.776;2023-06-14T15:41:01;41.30;1.00
4826;DHT22;2427;50.934;6.776;2023-06-14T15:43:26;41.70;1.00
4826;DHT22;2427;50.934;6.776;2023-06-14T15:45:52;41.20;1.00
4826;DHT22;2427;50.934;6.776;2023-06-14T15:48:17;41.30;1.00
4826;DHT22;2427;50.934;6.776;2023-06-14T15:50:43;40.50;1.00
4826;DHT22;2427;50.934;6.776;2023-06-14T15:53:08;38.60;1.00
4826;DHT22;2427;50.934;6.776;2023-06-14T15:55:34;38.50;1.00
4826;DHT22;2427;50.934;6.776;2023-06-14T15:58:00;38.00;1.00
4826;DHT22;2427;50.934;6.776;2023-06-14T16:00:25;36.70;1.00
4826;DHT22;2427;50.934;6.776;2023-06-14T16:02:51;35.00;1.00
4826;DHT22;2427;50.934;6.776;2023-06-14T16:05:17;33.80;1.00
4826;DHT22;2427;50.934;6.776;2023-06-14T16:07:42;33.50;1.00
4826;DHT22;2427;50.934;6.776;2023-06-14T16:10:08;34.40;1.00
4826;DHT22;2427;50.934;6.776;2023-06-14T16:12:34;35.30;1.00
4826;DHT22;2427;50.934;6.776;2023-06-14T16:14:59;36.30;1.00
4826;DHT22;2427;50.934;6.776;2023-06-14T16:17:25;37.20;1.00
4826;DHT22;2427;50.934;6.776;2023-06-14T16:19:51;37.90;1.00
4826;DHT22;2427;50.934;6.776;2023-06-14T16:22:17;38.20;1.00
4826;DHT22;2427;50.934;6.776;2023-06-14T16:24:43;38.40;1.00
4826;DHT22;2427;50.934;6.776;2023-06-14T16:27:08;38.30;1.00